KDTS

Destin Executive Airport

Destin, Florida, USA
METAR KDTS 151853Z 18011G18KT 10SM SCT046 20/16 A2992 RMK AO2 SLP132 T02000156
Observed Flight Rules
Feb-15 @ 18:53 UTC (49 minutes ago) Visual Flight Rules
Wind Visibility Clouds
180° at 11 knots
 Gusting to 18 knots
10 miles
  • Scattered at 4,600' AGL
Temperatures Readings
Current 20°C / 68°F
Dewpoint 16°C / 61°F
Humidity 78%
Altimeter 29.92" Hg
Pressure 1013.2 hPa
Elevation 5
METAR KDTS 151853Z 18011G18KT 10SM SCT046 20/16 A2992 RMK AO2 SLP132 T02000156
Observed Flight Rules
Feb-15 @ 18:53 UTC
(49 minutes ago)
VFR
Wind Visibility
180° at 11 knots
 Gusting to 18 knots
10 miles
Clouds
  • Scattered at 4,600' AGL
Temperature Dewpoint
20°C / 68°F 16°C / 61°F
Humidity Altimeter Pressure
78% 29.92" Hg 1013.2 hPa